createdAt,value
2022-10-25T00:01:23.354Z,1.50
2022-10-25T00:03:49.919Z,1.58
2022-10-25T00:06:16.457Z,1.73
2022-10-25T00:08:42.848Z,1.55
2022-10-25T00:11:15.863Z,1.58
2022-10-25T00:13:42.214Z,1.45
2022-10-25T00:16:18.358Z,1.38
2022-10-25T00:18:44.984Z,1.48
2022-10-25T00:21:11.332Z,1.27
2022-10-25T00:23:37.720Z,1.48
2022-10-25T00:26:06.846Z,1.25
2022-10-25T00:28:33.244Z,1.15
2022-10-25T00:31:04.502Z,1.30
2022-10-25T00:33:32.046Z,1.30
2022-10-25T00:36:22.514Z,1.60
2022-10-25T00:38:49.221Z,1.73
2022-10-25T00:41:21.899Z,1.17
2022-10-25T00:43:51.055Z,1.50
2022-10-25T00:46:23.556Z,1.42
2022-10-25T00:49:03.980Z,1.42
2022-10-25T00:51:52.782Z,1.45
2022-10-25T00:54:25.130Z,1.20
2022-10-25T00:56:52.873Z,1.55
2022-10-25T00:59:24.346Z,1.67
2022-10-25T01:01:54.778Z,1.30
2022-10-25T01:04:26.474Z,1.80
2022-10-25T01:06:53.761Z,1.20
2022-10-25T01:09:23.767Z,1.13
2022-10-25T01:11:50.166Z,1.77
2022-10-25T01:14:17.448Z,2.33
2022-10-25T01:17:09.679Z,1.80
2022-10-25T01:19:57.827Z,1.98
2022-10-25T01:22:33.805Z,2.20
2022-10-25T01:27:51.308Z,2.00
2022-10-25T01:30:40.923Z,2.13
2022-10-25T01:33:16.451Z,2.60
2022-10-25T01:35:57.863Z,3.15
2022-10-25T01:39:12.287Z,2.78
2022-10-25T01:42:00.858Z,2.97
2022-10-25T01:44:48.328Z,2.63
2022-10-25T01:47:23.524Z,3.08
2022-10-25T01:49:59.812Z,3.70
2022-10-25T01:52:26.348Z,2.97
2022-10-25T01:54:52.851Z,3.05
2022-10-25T01:57:44.754Z,2.72
2022-10-25T02:00:17.809Z,3.00
2022-10-25T02:03:18.096Z,3.30
2022-10-25T02:06:02.784Z,3.70
2022-10-25T02:08:41.748Z,2.72
2022-10-25T02:11:29.678Z,2.85
2022-10-25T02:14:14.803Z,2.83
2022-10-25T02:16:49.337Z,2.88
2022-10-25T02:19:19.989Z,3.00
2022-10-25T02:21:48.946Z,2.85
2022-10-25T02:24:26.499Z,2.70
2022-10-25T02:26:54.478Z,2.45
2022-10-25T02:29:22.736Z,2.70
2022-10-25T02:31:49.265Z,2.72
2022-10-25T02:34:15.612Z,2.95
2022-10-25T02:36:41.972Z,3.25
2022-10-25T02:39:08.532Z,2.70
2022-10-25T02:41:34.916Z,2.33
2022-10-25T02:44:01.333Z,2.80
2022-10-25T02:46:27.778Z,2.65
2022-10-25T02:48:54.214Z,2.20
2022-10-25T02:51:20.640Z,3.22
2022-10-25T02:53:47.306Z,3.00
2022-10-25T02:56:16.470Z,2.88
2022-10-25T02:58:44.645Z,3.17
2022-10-25T03:01:11.630Z,2.45
2022-10-25T03:03:38.190Z,2.65
2022-10-25T03:06:05.480Z,2.50
2022-10-25T03:08:32.458Z,2.42
2022-10-25T03:10:59.570Z,2.13
2022-10-25T03:13:25.978Z,2.38
2022-10-25T03:15:52.411Z,2.22
2022-10-25T03:18:18.726Z,2.17
2022-10-25T03:20:45.156Z,2.38
2022-10-25T03:23:12.478Z,2.50
2022-10-25T03:25:38.918Z,2.47
2022-10-25T03:28:05.259Z,2.17
2022-10-25T03:30:32.009Z,2.40
2022-10-25T03:32:59.255Z,2.10
2022-10-25T03:35:26.215Z,2.45
2022-10-25T03:37:53.167Z,2.65
2022-10-25T03:40:20.492Z,2.80
2022-10-25T03:42:47.194Z,2.20
2022-10-25T03:45:13.592Z,2.58
2022-10-25T03:47:40.177Z,2.20
2022-10-25T03:50:07.751Z,2.38
2022-10-25T03:52:34.710Z,2.22
2022-10-25T03:55:01.087Z,2.60
2022-10-25T03:57:27.452Z,2.70
2022-10-25T03:59:53.900Z,2.35
2022-10-25T04:02:20.311Z,2.05
2022-10-25T04:04:46.634Z,2.40
2022-10-25T04:07:13.014Z,2.28
2022-10-25T04:09:39.391Z,2.58
2022-10-25T04:12:05.870Z,2.25
2022-10-25T04:14:32.360Z,2.72
2022-10-25T04:16:58.687Z,2.22
2022-10-25T04:19:25.023Z,1.92
2022-10-25T04:21:51.666Z,2.30
2022-10-25T04:24:18.156Z,2.40
2022-10-25T04:26:44.550Z,2.40
2022-10-25T04:29:11.839Z,2.22
2022-10-25T04:31:38.162Z,1.95
2022-10-25T04:34:04.508Z,2.58
2022-10-25T04:36:31.419Z,2.10
2022-10-25T04:38:57.778Z,2.45
2022-10-25T04:41:24.299Z,2.03
2022-10-25T04:43:51.568Z,2.42
2022-10-25T04:46:19.250Z,2.40
2022-10-25T04:48:45.634Z,2.63
2022-10-25T04:51:12.734Z,2.33
2022-10-25T04:53:39.195Z,2.50
2022-10-25T04:56:08.947Z,2.30
2022-10-25T04:58:35.827Z,2.50
2022-10-25T05:01:09.281Z,2.50
2022-10-25T05:03:36.074Z,2.72
2022-10-25T05:06:13.588Z,2.55
2022-10-25T05:08:42.543Z,2.75
2022-10-25T05:11:10.498Z,2.72
2022-10-25T05:13:38.728Z,2.65
2022-10-25T05:16:05.699Z,2.38
2022-10-25T05:18:33.369Z,1.90
2022-10-25T05:21:04.045Z,2.45
2022-10-25T05:23:31.531Z,2.72
2022-10-25T05:26:09.561Z,2.72
2022-10-25T05:28:37.528Z,2.60
2022-10-25T05:31:08.390Z,2.88
2022-10-25T05:33:35.270Z,2.72
2022-10-25T05:36:03.535Z,2.22
2022-10-25T05:38:33.037Z,2.78
2022-10-25T05:41:03.349Z,2.60
2022-10-25T05:43:29.768Z,2.67
2022-10-25T05:46:08.236Z,2.60
2022-10-25T05:48:36.044Z,2.42
2022-10-25T05:51:32.446Z,2.78
2022-10-25T05:54:05.954Z,2.30
2022-10-25T05:56:35.334Z,2.70
2022-10-25T05:59:09.546Z,2.70
2022-10-25T06:01:38.437Z,2.83
2022-10-25T06:04:05.310Z,2.75
2022-10-25T06:06:32.030Z,2.67
2022-10-25T06:08:59.754Z,3.03
2022-10-25T06:11:26.918Z,2.65
2022-10-25T06:13:53.630Z,2.75
2022-10-25T06:16:20.891Z,2.70
2022-10-25T06:18:47.284Z,2.50
2022-10-25T06:21:16.149Z,3.13
2022-10-25T06:23:43.439Z,2.95
2022-10-25T06:26:12.356Z,3.00
2022-10-25T06:28:39.662Z,2.60
2022-10-25T06:31:08.854Z,2.72
2022-10-25T06:33:35.742Z,2.42
2022-10-25T06:36:04.526Z,3.00
2022-10-25T06:38:31.324Z,2.78
2022-10-25T06:41:02.797Z,3.42
2022-10-25T06:43:30.175Z,2.20
2022-10-25T06:45:57.132Z,2.97
2022-10-25T06:48:23.811Z,3.08
2022-10-25T06:51:04.532Z,2.95
2022-10-25T06:53:31.400Z,2.95
2022-10-25T06:56:04.641Z,3.13
2022-10-25T06:58:33.474Z,2.88
2022-10-25T07:01:08.530Z,3.25
2022-10-25T07:03:36.395Z,3.15
2022-10-25T07:06:13.647Z,2.88
2022-10-25T07:08:42.414Z,2.80
2022-10-25T07:11:14.074Z,2.90
2022-10-25T07:13:40.417Z,2.72
2022-10-25T07:16:09.384Z,2.97
2022-10-25T07:18:36.466Z,2.70
2022-10-25T07:21:05.457Z,2.85
2022-10-25T07:23:32.356Z,3.20
2022-10-25T07:25:59.355Z,3.70
2022-10-25T07:28:26.304Z,3.13
2022-10-25T07:30:52.844Z,3.15
2022-10-25T07:33:20.818Z,3.05
2022-10-25T07:35:59.102Z,2.95
2022-10-25T07:38:32.890Z,3.37
2022-10-25T07:40:59.289Z,3.38
2022-10-25T07:43:26.895Z,3.50
2022-10-25T07:45:53.830Z,3.60
2022-10-25T07:48:20.163Z,3.42
2022-10-25T07:50:46.496Z,3.80
2022-10-25T07:53:12.859Z,3.35
2022-10-25T07:55:39.301Z,3.45
2022-10-25T07:58:07.977Z,4.05
2022-10-25T08:00:35.839Z,3.60
2022-10-25T08:03:02.787Z,3.58
2022-10-25T08:05:29.397Z,3.35
2022-10-25T08:07:55.752Z,3.25
2022-10-25T08:10:22.344Z,3.63
2022-10-25T08:12:49.543Z,3.35
2022-10-25T08:15:16.883Z,3.65
2022-10-25T08:17:43.592Z,3.30
2022-10-25T08:20:10.133Z,3.00
2022-10-25T08:22:36.514Z,3.50
2022-10-25T08:25:05.249Z,3.20
2022-10-25T08:27:32.705Z,2.85
2022-10-25T08:29:59.102Z,3.35
2022-10-25T08:32:25.437Z,3.38
2022-10-25T08:34:51.784Z,2.83
2022-10-25T08:37:18.285Z,3.33
2022-10-25T08:39:44.967Z,3.05
2022-10-25T08:42:22.237Z,2.85
2022-10-25T08:45:04.969Z,2.80
2022-10-25T08:47:36.141Z,2.97
2022-10-25T08:50:04.635Z,2.83
2022-10-25T08:52:40.251Z,3.05
2022-10-25T08:55:15.038Z,2.90
2022-10-25T08:57:46.791Z,2.55
2022-10-25T09:00:20.881Z,3.38
2022-10-25T09:02:55.894Z,2.60
2022-10-25T09:05:41.503Z,3.03
2022-10-25T09:08:19.957Z,3.10
2022-10-25T09:11:10.557Z,3.10
2022-10-25T09:13:39.914Z,2.63
2022-10-25T09:16:17.165Z,3.28
2022-10-25T09:18:50.805Z,3.17
2022-10-25T09:21:47.098Z,2.60
2022-10-25T09:24:56.868Z,2.83
2022-10-25T09:27:47.302Z,2.42
2022-10-25T09:30:14.086Z,2.15
2022-10-25T09:32:48.131Z,2.80
2022-10-25T09:35:48.403Z,2.80
2022-10-25T09:38:20.835Z,2.17
2022-10-25T09:40:50.560Z,2.30
2022-10-25T09:43:21.676Z,2.55
2022-10-25T09:45:52.110Z,2.47
2022-10-25T09:48:31.558Z,2.88
2022-10-25T09:51:03.591Z,3.03
2022-10-25T09:53:33.194Z,2.95
2022-10-25T09:56:03.310Z,2.80
2022-10-25T09:58:32.542Z,2.47
2022-10-25T10:01:08.800Z,2.90
2022-10-25T10:03:36.620Z,2.42
2022-10-25T10:06:19.281Z,2.47
2022-10-25T10:08:56.799Z,2.83
2022-10-25T10:11:23.188Z,2.33
2022-10-25T10:13:59.834Z,2.60
2022-10-25T10:16:35.456Z,3.00
2022-10-25T10:19:22.522Z,3.00
2022-10-25T10:21:50.300Z,2.53
2022-10-25T10:24:26.885Z,2.70
2022-10-25T10:26:57.395Z,2.50
2022-10-25T10:29:26.993Z,3.03
2022-10-25T10:32:02.732Z,2.50
2022-10-25T10:34:50.808Z,2.97
2022-10-25T10:37:35.414Z,2.22
2022-10-25T10:40:24.274Z,2.92
2022-10-25T10:42:50.672Z,2.75
2022-10-25T10:45:19.686Z,2.00
2022-10-25T10:47:57.890Z,2.42
2022-10-25T10:50:28.712Z,2.20
2022-10-25T10:53:21.008Z,2.78
2022-10-25T10:55:49.842Z,2.10
2022-10-25T10:58:31.003Z,2.20
2022-10-25T11:01:03.625Z,2.30
2022-10-25T11:03:42.472Z,2.15
2022-10-25T11:06:15.523Z,1.90
2022-10-25T11:08:44.059Z,2.05
2022-10-25T11:11:21.767Z,2.30
2022-10-25T11:13:54.617Z,2.20
2022-10-25T11:16:43.190Z,2.35
2022-10-25T11:19:34.463Z,2.00
2022-10-25T11:22:16.052Z,2.40
2022-10-25T11:25:04.147Z,2.38
2022-10-25T11:27:39.510Z,1.85
2022-10-25T11:30:21.049Z,2.28
2022-10-25T11:33:29.828Z,1.98
2022-10-25T11:36:38.321Z,2.03
2022-10-25T11:39:22.980Z,2.20
2022-10-25T11:41:51.444Z,2.05
2022-10-25T11:44:20.524Z,1.90
2022-10-25T11:46:46.818Z,2.70
2022-10-25T11:49:20.998Z,2.20
2022-10-25T11:52:05.889Z,2.17
2022-10-25T11:54:51.154Z,2.08
2022-10-25T11:57:53.219Z,2.50
2022-10-25T12:00:24.627Z,1.88
2022-10-25T12:03:07.948Z,2.05
2022-10-25T12:05:45.661Z,2.10
2022-10-25T12:08:20.812Z,2.03
2022-10-25T12:10:52.895Z,1.90
2022-10-25T12:13:21.146Z,1.63
2022-10-25T12:15:50.714Z,1.55
2022-10-25T12:18:26.333Z,1.35
2022-10-25T12:20:54.048Z,1.52
2022-10-25T12:23:24.272Z,1.88
2022-10-25T12:25:54.237Z,1.77
2022-10-25T12:28:32.598Z,1.77
2022-10-25T12:31:09.282Z,2.20
2022-10-25T12:33:41.836Z,1.77
2022-10-25T12:36:27.882Z,1.65
2022-10-25T12:38:55.551Z,1.50
2022-10-25T12:41:26.972Z,1.73
2022-10-25T12:44:31.482Z,1.70
2022-10-25T12:47:35.581Z,1.58
2022-10-25T12:50:33.864Z,1.92
2022-10-25T12:53:30.094Z,1.50
2022-10-25T12:56:05.567Z,1.63
2022-10-25T12:59:17.236Z,2.00
2022-10-25T13:01:54.749Z,1.67
2022-10-25T13:05:05.530Z,1.77
2022-10-25T13:07:35.369Z,1.80
2022-10-25T13:10:15.058Z,1.70
2022-10-25T13:12:41.900Z,1.80
2022-10-25T13:15:18.739Z,1.85
2022-10-25T13:17:48.247Z,1.80
2022-10-25T13:20:22.682Z,1.73
2022-10-25T13:22:49.691Z,1.60
2022-10-25T13:25:32.559Z,1.85
2022-10-25T13:28:34.031Z,1.88
2022-10-25T13:31:33.302Z,1.95
2022-10-25T13:34:11.842Z,1.85
2022-10-25T13:36:55.774Z,1.40
2022-10-25T13:39:37.046Z,1.77
2022-10-25T13:42:20.681Z,1.75
2022-10-25T13:45:02.229Z,1.55
2022-10-25T13:47:36.739Z,1.70
2022-10-25T13:50:27.576Z,1.42
2022-10-25T13:53:05.763Z,1.90
2022-10-25T13:55:45.010Z,1.60
2022-10-25T13:58:31.649Z,1.98
2022-10-25T14:01:21.587Z,1.70
2022-10-25T14:04:19.169Z,1.45
2022-10-25T14:06:45.582Z,1.75
2022-10-25T14:09:29.557Z,1.67
2022-10-25T14:12:13.786Z,1.58
2022-10-25T14:15:08.860Z,1.55
2022-10-25T14:17:43.529Z,1.90
2022-10-25T14:20:29.415Z,1.75
2022-10-25T14:23:15.415Z,1.80
2022-10-25T14:25:48.863Z,1.52
2022-10-25T14:28:30.320Z,1.70
2022-10-25T14:30:59.299Z,1.63
2022-10-25T14:33:30.498Z,1.65
2022-10-25T14:36:05.681Z,1.48
2022-10-25T14:38:35.750Z,1.90
2022-10-25T14:41:09.790Z,1.80
2022-10-25T14:43:38.488Z,1.60
2022-10-25T14:46:14.284Z,1.50
2022-10-25T14:48:47.371Z,1.55
2022-10-25T14:51:24.232Z,1.50
2022-10-25T14:53:52.844Z,1.60
2022-10-25T14:56:29.332Z,1.60
2022-10-25T14:58:57.033Z,1.80
2022-10-25T15:01:23.800Z,1.67
2022-10-25T15:03:54.360Z,1.45
2022-10-25T15:06:24.267Z,1.60
2022-10-25T15:09:09.188Z,2.60
2022-10-25T15:12:05.914Z,2.40
2022-10-25T15:14:32.400Z,2.13
2022-10-25T15:17:06.066Z,2.40
2022-10-25T15:19:32.967Z,2.13
2022-10-25T15:22:08.133Z,2.45
2022-10-25T15:24:45.142Z,1.85
2022-10-25T15:27:31.456Z,1.80
2022-10-25T15:29:58.006Z,2.10
2022-10-25T15:32:28.989Z,1.70
2022-10-25T15:34:58.786Z,1.75
2022-10-25T15:37:27.366Z,1.48
2022-10-25T15:39:55.466Z,2.03
2022-10-25T15:42:24.814Z,1.73
2022-10-25T15:44:51.378Z,1.85
2022-10-25T15:47:32.007Z,1.42
2022-10-25T15:49:59.497Z,1.45
2022-10-25T15:52:26.563Z,1.70
2022-10-25T15:54:53.079Z,1.60
2022-10-25T15:57:19.563Z,1.60
2022-10-25T15:59:45.966Z,2.00
2022-10-25T16:02:27.023Z,1.70
2022-10-25T16:04:53.419Z,1.73
2022-10-25T16:07:19.825Z,1.60
2022-10-25T16:09:46.313Z,1.15
2022-10-25T16:12:20.943Z,1.52
2022-10-25T16:14:49.412Z,1.40
2022-10-25T16:17:15.833Z,1.20
2022-10-25T16:19:42.230Z,1.67
2022-10-25T16:22:08.678Z,1.23
2022-10-25T16:24:35.130Z,1.67
2022-10-25T16:27:01.546Z,1.40
2022-10-25T16:29:28.007Z,1.00
2022-10-25T16:31:54.516Z,1.52
2022-10-25T16:34:21.081Z,1.50
2022-10-25T16:36:48.858Z,1.83
2022-10-25T16:39:15.348Z,1.75
2022-10-25T16:41:44.039Z,2.13
2022-10-25T16:44:12.841Z,2.13
2022-10-25T16:46:39.836Z,1.45
2022-10-25T16:49:06.295Z,1.30
2022-10-25T16:51:34.616Z,1.50
2022-10-25T16:54:01.380Z,1.80
2022-10-25T16:56:27.784Z,2.08
2022-10-25T16:58:54.282Z,2.10
2022-10-25T17:01:26.150Z,1.98
2022-10-25T17:03:53.912Z,2.13
2022-10-25T17:06:40.299Z,3.08
2022-10-25T17:09:08.043Z,2.80
2022-10-25T17:11:34.367Z,2.53
2022-10-25T17:14:00.742Z,2.45
2022-10-25T17:16:27.267Z,2.40
2022-10-25T17:18:53.570Z,2.78
2022-10-25T17:21:19.959Z,2.50
2022-10-25T17:23:46.493Z,2.45
2022-10-25T17:26:12.924Z,2.80
2022-10-25T17:28:43.134Z,4.22
2022-10-25T17:31:12.698Z,6.30
2022-10-25T17:33:39.153Z,5.20
2022-10-25T17:36:12.009Z,4.78
2022-10-25T17:38:38.549Z,3.55
2022-10-25T17:41:05.447Z,3.88
2022-10-25T17:43:33.655Z,3.95
2022-10-25T17:46:02.088Z,4.72
2022-10-25T17:48:28.989Z,4.10
2022-10-25T17:51:01.212Z,4.72
2022-10-25T17:53:27.660Z,4.28
2022-10-25T17:55:53.987Z,4.45
2022-10-25T17:58:20.310Z,4.85
2022-10-25T18:00:46.690Z,4.72
2022-10-25T18:03:13.330Z,5.30
2022-10-25T18:05:40.322Z,5.60
2022-10-25T18:08:07.262Z,5.50
2022-10-25T18:10:35.030Z,5.85
2022-10-25T18:13:01.562Z,5.05
2022-10-25T18:15:29.477Z,5.78
2022-10-25T18:17:55.810Z,5.57
2022-10-25T18:20:25.106Z,6.18
2022-10-25T18:22:53.074Z,5.70
2022-10-25T18:25:19.809Z,5.50
2022-10-25T18:27:46.546Z,4.78
2022-10-25T18:30:13.451Z,5.85
2022-10-25T18:32:39.796Z,7.38
2022-10-25T18:35:06.483Z,6.70
2022-10-25T18:37:32.860Z,7.35
2022-10-25T18:39:59.192Z,7.43
2022-10-25T18:42:25.570Z,6.35
2022-10-25T18:44:52.960Z,6.47
2022-10-25T18:47:19.300Z,6.30
2022-10-25T18:49:45.735Z,5.90
2022-10-25T18:52:12.150Z,5.75
2022-10-25T18:54:38.512Z,4.97
2022-10-25T18:57:05.076Z,5.30
2022-10-25T18:59:31.839Z,5.60
2022-10-25T19:01:58.370Z,5.28
2022-10-25T19:04:25.167Z,6.20
2022-10-25T19:06:51.528Z,4.80
2022-10-25T19:09:18.024Z,5.03
2022-10-25T19:11:44.482Z,4.97
2022-10-25T19:14:10.872Z,5.32
2022-10-25T19:16:40.575Z,6.40
2022-10-25T19:19:08.221Z,5.80
2022-10-25T19:21:35.330Z,5.35
2022-10-25T19:24:01.955Z,5.22
2022-10-25T19:26:28.427Z,6.50
2022-10-25T19:28:59.794Z,6.22
2022-10-25T19:31:27.480Z,6.20
2022-10-25T19:33:56.195Z,6.57
2022-10-25T19:36:22.621Z,5.50
2022-10-25T19:38:48.938Z,5.72
2022-10-25T19:41:20.660Z,5.88
2022-10-25T19:43:47.442Z,5.88
2022-10-25T19:46:14.299Z,6.22
2022-10-25T19:48:40.820Z,5.38
2022-10-25T19:51:09.124Z,5.75
2022-10-25T19:53:35.542Z,5.78
2022-10-25T19:56:19.406Z,5.72
2022-10-25T19:58:47.161Z,5.18
2022-10-25T20:01:16.790Z,5.70
2022-10-25T20:03:44.830Z,5.57
2022-10-25T20:06:17.527Z,5.93
2022-10-25T20:08:49.732Z,6.13
2022-10-25T20:11:17.070Z,5.20
2022-10-25T20:13:43.722Z,6.80
2022-10-25T20:16:14.021Z,5.60
2022-10-25T20:18:41.905Z,5.97
2022-10-25T20:21:11.509Z,5.28
2022-10-25T20:23:39.147Z,6.80
2022-10-25T20:26:14.271Z,6.55
2022-10-25T20:28:41.966Z,6.65
2022-10-25T20:31:08.373Z,6.78
2022-10-25T20:33:34.837Z,7.97
2022-10-25T20:36:02.986Z,7.63
2022-10-25T20:38:29.955Z,7.78
2022-10-25T20:40:56.386Z,8.32
2022-10-25T20:43:22.721Z,7.97
2022-10-25T20:45:49.085Z,8.15
2022-10-25T20:48:15.430Z,7.88
2022-10-25T20:50:46.047Z,8.60
2022-10-25T20:53:13.115Z,7.47
2022-10-25T20:55:39.512Z,6.63
2022-10-25T20:58:05.834Z,7.07
2022-10-25T21:00:32.818Z,7.90
2022-10-25T21:03:00.155Z,7.20
2022-10-25T21:05:26.646Z,7.50
2022-10-25T21:07:52.972Z,9.05
2022-10-25T21:10:19.424Z,7.90
2022-10-25T21:12:45.780Z,8.02
2022-10-25T21:15:12.481Z,7.10
2022-10-25T21:17:39.278Z,7.07
2022-10-25T21:20:06.356Z,7.43
2022-10-25T21:22:32.763Z,7.50
2022-10-25T21:24:59.117Z,7.60
2022-10-25T21:27:25.471Z,7.63
2022-10-25T21:29:51.966Z,7.80
2022-10-25T21:32:18.316Z,8.23
2022-10-25T21:34:44.689Z,8.15
2022-10-25T21:37:11.034Z,7.47
2022-10-25T21:39:37.364Z,8.13
2022-10-25T21:42:03.874Z,8.30
2022-10-25T21:44:30.228Z,7.90
2022-10-25T21:46:56.564Z,7.78
2022-10-25T21:49:22.910Z,8.25
2022-10-25T21:51:49.276Z,7.80
2022-10-25T21:54:15.914Z,8.35
2022-10-25T21:56:42.266Z,7.70
2022-10-25T21:59:08.586Z,7.50
2022-10-25T22:01:35.187Z,9.13
2022-10-25T22:04:01.664Z,9.43
2022-10-25T22:06:28.363Z,9.40
2022-10-25T22:08:55.793Z,8.98
2022-10-25T22:11:28.375Z,9.02
2022-10-25T22:13:56.950Z,8.93
2022-10-25T22:16:23.928Z,8.57
2022-10-25T22:18:53.557Z,7.75
2022-10-25T22:21:21.305Z,8.00
2022-10-25T22:23:48.008Z,7.82
2022-10-25T22:26:17.179Z,8.18
2022-10-25T22:28:43.789Z,7.68
2022-10-25T22:31:12.773Z,7.47
2022-10-25T22:33:39.787Z,7.50
2022-10-25T22:36:14.385Z,7.80
2022-10-25T22:38:41.066Z,7.70
2022-10-25T22:41:11.086Z,7.90
2022-10-25T22:43:38.635Z,6.68
2022-10-25T22:46:08.250Z,7.97
2022-10-25T22:48:37.152Z,7.47
2022-10-25T22:51:04.286Z,7.68
2022-10-25T22:53:30.989Z,8.05
2022-10-25T22:56:03.045Z,8.13
2022-10-25T22:58:33.747Z,7.75
2022-10-25T23:01:14.514Z,6.63
2022-10-25T23:03:43.390Z,7.15
2022-10-25T23:06:11.983Z,7.68
2022-10-25T23:08:38.306Z,7.43
2022-10-25T23:11:08.058Z,7.45
2022-10-25T23:13:35.711Z,6.72
2022-10-25T23:16:03.458Z,6.78
2022-10-25T23:18:30.327Z,6.63
2022-10-25T23:20:58.668Z,6.55
2022-10-25T23:23:25.981Z,6.22
2022-10-25T23:25:53.124Z,5.90
2022-10-25T23:28:19.836Z,6.85
2022-10-25T23:30:46.631Z,7.22
2022-10-25T23:33:13.767Z,7.40
2022-10-25T23:35:41.836Z,6.32
2022-10-25T23:38:12.482Z,6.38
2022-10-25T23:40:39.811Z,6.80
2022-10-25T23:43:06.550Z,6.47
2022-10-25T23:45:33.155Z,6.43
2022-10-25T23:47:59.526Z,6.90
2022-10-25T23:50:25.878Z,6.40
2022-10-25T23:52:52.359Z,6.65
2022-10-25T23:55:18.790Z,6.72
2022-10-25T23:57:45.181Z,6.25
